sensor_id;sensor_type;location;lat;lon;timestamp;P1;durP1;ratioP1;P2;durP2;ratioP2
79480;SDS011;68944;48.262;14.208;2023-12-20T00:00:00;12.90;;;5.30;;
79480;SDS011;68944;48.262;14.208;2023-12-20T00:02:26;10.15;;;4.47;;
79480;SDS011;68944;48.262;14.208;2023-12-20T00:04:51;9.40;;;4.93;;
79480;SDS011;68944;48.262;14.208;2023-12-20T00:07:16;8.68;;;4.43;;
79480;SDS011;68944;48.262;14.208;2023-12-20T00:09:42;8.50;;;4.22;;
79480;SDS011;68944;48.262;14.208;2023-12-20T00:12:07;9.30;;;4.88;;
79480;SDS011;68944;48.262;14.208;2023-12-20T00:14:33;9.05;;;4.05;;
79480;SDS011;68944;48.262;14.208;2023-12-20T00:16:58;9.23;;;4.97;;
79480;SDS011;68944;48.262;14.208;2023-12-20T00:19:24;9.85;;;4.93;;
79480;SDS011;68944;48.262;14.208;2023-12-20T00:21:49;11.20;;;6.10;;
79480;SDS011;68944;48.262;14.208;2023-12-20T00:24:15;13.18;;;6.88;;
79480;SDS011;68944;48.262;14.208;2023-12-20T00:26:41;10.70;;;5.80;;
79480;SDS011;68944;48.262;14.208;2023-12-20T00:29:07;14.38;;;7.63;;
79480;SDS011;68944;48.262;14.208;2023-12-20T00:31:33;13.35;;;7.28;;
79480;SDS011;68944;48.262;14.208;2023-12-20T00:33:58;12.38;;;7.03;;
79480;SDS011;68944;48.262;14.208;2023-12-20T00:36:23;13.75;;;7.22;;
79480;SDS011;68944;48.262;14.208;2023-12-20T00:38:49;12.68;;;6.85;;
79480;SDS011;68944;48.262;14.208;2023-12-20T00:41:16;14.80;;;7.10;;
79480;SDS011;68944;48.262;14.208;2023-12-20T00:43:41;15.13;;;9.05;;
79480;SDS011;68944;48.262;14.208;2023-12-20T00:46:07;18.38;;;8.70;;
79480;SDS011;68944;48.262;14.208;2023-12-20T00:48:33;19.77;;;9.30;;
79480;SDS011;68944;48.262;14.208;2023-12-20T00:50:58;22.55;;;9.27;;
79480;SDS011;68944;48.262;14.208;2023-12-20T00:53:23;18.10;;;10.48;;
79480;SDS011;68944;48.262;14.208;2023-12-20T00:55:49;16.45;;;8.60;;
79480;SDS011;68944;48.262;14.208;2023-12-20T00:58:15;20.55;;;9.75;;
79480;SDS011;68944;48.262;14.208;2023-12-20T01:00:40;15.95;;;9.07;;
79480;SDS011;68944;48.262;14.208;2023-12-20T01:03:08;14.80;;;8.02;;
79480;SDS011;68944;48.262;14.208;2023-12-20T01:05:33;12.82;;;7.38;;
79480;SDS011;68944;48.262;14.208;2023-12-20T01:07:59;13.40;;;7.15;;
79480;SDS011;68944;48.262;14.208;2023-12-20T01:10:25;13.73;;;6.68;;
79480;SDS011;68944;48.262;14.208;2023-12-20T01:12:53;13.93;;;7.68;;
79480;SDS011;68944;48.262;14.208;2023-12-20T01:15:18;13.95;;;7.00;;
79480;SDS011;68944;48.262;14.208;2023-12-20T01:17:44;16.55;;;8.30;;
79480;SDS011;68944;48.262;14.208;2023-12-20T01:20:09;13.57;;;7.53;;
79480;SDS011;68944;48.262;14.208;2023-12-20T01:22:35;12.25;;;6.78;;
79480;SDS011;68944;48.262;14.208;2023-12-20T01:25:01;11.68;;;6.32;;
79480;SDS011;68944;48.262;14.208;2023-12-20T01:27:27;12.10;;;6.40;;
79480;SDS011;68944;48.262;14.208;2023-12-20T01:29:53;13.02;;;6.45;;
79480;SDS011;68944;48.262;14.208;2023-12-20T01:32:19;11.85;;;7.15;;
79480;SDS011;68944;48.262;14.208;2023-12-20T01:34:45;12.55;;;6.28;;
79480;SDS011;68944;48.262;14.208;2023-12-20T01:37:10;12.52;;;6.03;;
79480;SDS011;68944;48.262;14.208;2023-12-20T01:39:35;10.30;;;4.93;;
79480;SDS011;68944;48.262;14.208;2023-12-20T01:42:01;9.48;;;5.68;;
79480;SDS011;68944;48.262;14.208;2023-12-20T01:44:27;9.13;;;4.85;;
79480;SDS011;68944;48.262;14.208;2023-12-20T01:46:53;9.60;;;4.63;;
79480;SDS011;68944;48.262;14.208;2023-12-20T01:49:19;11.60;;;6.10;;
79480;SDS011;68944;48.262;14.208;2023-12-20T01:51:45;12.38;;;6.05;;
79480;SDS011;68944;48.262;14.208;2023-12-20T01:54:11;10.95;;;5.50;;
79480;SDS011;68944;48.262;14.208;2023-12-20T01:56:37;10.80;;;5.40;;
79480;SDS011;68944;48.262;14.208;2023-12-20T01:59:04;13.52;;;6.63;;
79480;SDS011;68944;48.262;14.208;2023-12-20T02:06:49;11.50;;;6.22;;
79480;SDS011;68944;48.262;14.208;2023-12-20T02:09:17;9.80;;;5.10;;
79480;SDS011;68944;48.262;14.208;2023-12-20T02:11:45;12.45;;;6.53;;
79480;SDS011;68944;48.262;14.208;2023-12-20T02:14:10;12.13;;;6.88;;
79480;SDS011;68944;48.262;14.208;2023-12-20T02:16:36;12.02;;;6.13;;
79480;SDS011;68944;48.262;14.208;2023-12-20T02:19:02;11.75;;;6.72;;
79480;SDS011;68944;48.262;14.208;2023-12-20T02:21:32;11.93;;;6.82;;
79480;SDS011;68944;48.262;14.208;2023-12-20T02:23:59;11.73;;;5.88;;
79480;SDS011;68944;48.262;14.208;2023-12-20T02:26:24;10.55;;;5.63;;
79480;SDS011;68944;48.262;14.208;2023-12-20T02:28:50;12.82;;;6.30;;
79480;SDS011;68944;48.262;14.208;2023-12-20T02:31:15;12.95;;;6.50;;
79480;SDS011;68944;48.262;14.208;2023-12-20T02:33:41;9.70;;;5.30;;
79480;SDS011;68944;48.262;14.208;2023-12-20T02:36:07;10.02;;;5.78;;
79480;SDS011;68944;48.262;14.208;2023-12-20T02:38:32;11.43;;;5.53;;
79480;SDS011;68944;48.262;14.208;2023-12-20T02:40:59;11.10;;;5.53;;
79480;SDS011;68944;48.262;14.208;2023-12-20T02:43:24;10.75;;;6.28;;
79480;SDS011;68944;48.262;14.208;2023-12-20T02:45:50;11.25;;;5.80;;
79480;SDS011;68944;48.262;14.208;2023-12-20T02:48:15;10.20;;;5.20;;
79480;SDS011;68944;48.262;14.208;2023-12-20T02:50:41;12.23;;;5.93;;
79480;SDS011;68944;48.262;14.208;2023-12-20T02:53:06;12.18;;;6.30;;
79480;SDS011;68944;48.262;14.208;2023-12-20T02:55:32;11.60;;;5.97;;
79480;SDS011;68944;48.262;14.208;2023-12-20T02:57:57;10.27;;;5.20;;
79480;SDS011;68944;48.262;14.208;2023-12-20T03:00:23;11.13;;;5.38;;
79480;SDS011;68944;48.262;14.208;2023-12-20T03:02:49;11.50;;;5.15;;
79480;SDS011;68944;48.262;14.208;2023-12-20T03:05:15;11.43;;;6.00;;
79480;SDS011;68944;48.262;14.208;2023-12-20T03:07:40;11.98;;;5.63;;
79480;SDS011;68944;48.262;14.208;2023-12-20T03:10:08;10.40;;;5.32;;
79480;SDS011;68944;48.262;14.208;2023-12-20T03:12:34;11.10;;;6.03;;
79480;SDS011;68944;48.262;14.208;2023-12-20T03:15:00;12.60;;;5.63;;
79480;SDS011;68944;48.262;14.208;2023-12-20T03:17:25;10.05;;;5.50;;
79480;SDS011;68944;48.262;14.208;2023-12-20T03:19:51;11.35;;;5.80;;
79480;SDS011;68944;48.262;14.208;2023-12-20T03:22:16;10.43;;;4.85;;
79480;SDS011;68944;48.262;14.208;2023-12-20T03:24:42;10.52;;;5.07;;
79480;SDS011;68944;48.262;14.208;2023-12-20T03:27:07;11.02;;;5.97;;
79480;SDS011;68944;48.262;14.208;2023-12-20T03:29:33;11.80;;;5.88;;
79480;SDS011;68944;48.262;14.208;2023-12-20T03:31:58;11.43;;;5.40;;
79480;SDS011;68944;48.262;14.208;2023-12-20T03:34:24;11.35;;;6.03;;
79480;SDS011;68944;48.262;14.208;2023-12-20T03:36:49;11.20;;;6.32;;
79480;SDS011;68944;48.262;14.208;2023-12-20T03:39:15;10.55;;;6.32;;
79480;SDS011;68944;48.262;14.208;2023-12-20T03:41:40;11.60;;;6.28;;
79480;SDS011;68944;48.262;14.208;2023-12-20T03:44:05;14.68;;;6.13;;
79480;SDS011;68944;48.262;14.208;2023-12-20T03:46:31;11.77;;;5.88;;
79480;SDS011;68944;48.262;14.208;2023-12-20T03:48:57;11.38;;;6.20;;
79480;SDS011;68944;48.262;14.208;2023-12-20T03:51:23;13.05;;;6.65;;
79480;SDS011;68944;48.262;14.208;2023-12-20T03:53:48;15.02;;;8.15;;
79480;SDS011;68944;48.262;14.208;2023-12-20T03:56:14;15.40;;;7.55;;
79480;SDS011;68944;48.262;14.208;2023-12-20T03:58:39;12.20;;;5.88;;
79480;SDS011;68944;48.262;14.208;2023-12-20T04:01:09;11.55;;;6.20;;
79480;SDS011;68944;48.262;14.208;2023-12-20T04:03:35;18.38;;;8.77;;
79480;SDS011;68944;48.262;14.208;2023-12-20T04:06:01;10.82;;;5.65;;
79480;SDS011;68944;48.262;14.208;2023-12-20T04:08:26;12.27;;;6.25;;
79480;SDS011;68944;48.262;14.208;2023-12-20T04:10:52;11.57;;;5.40;;
79480;SDS011;68944;48.262;14.208;2023-12-20T04:13:17;11.70;;;5.22;;
79480;SDS011;68944;48.262;14.208;2023-12-20T04:15:43;9.18;;;4.97;;
79480;SDS011;68944;48.262;14.208;2023-12-20T04:18:09;10.77;;;5.40;;
79480;SDS011;68944;48.262;14.208;2023-12-20T04:20:35;11.00;;;5.38;;
79480;SDS011;68944;48.262;14.208;2023-12-20T04:23:00;10.68;;;4.53;;
79480;SDS011;68944;48.262;14.208;2023-12-20T04:25:26;10.98;;;5.22;;
79480;SDS011;68944;48.262;14.208;2023-12-20T04:27:51;10.38;;;4.75;;
79480;SDS011;68944;48.262;14.208;2023-12-20T04:30:17;11.25;;;6.15;;
79480;SDS011;68944;48.262;14.208;2023-12-20T04:32:42;9.93;;;4.68;;
79480;SDS011;68944;48.262;14.208;2023-12-20T04:35:08;10.30;;;5.00;;
79480;SDS011;68944;48.262;14.208;2023-12-20T04:37:33;9.98;;;4.90;;
79480;SDS011;68944;48.262;14.208;2023-12-20T04:39:59;9.00;;;4.63;;
79480;SDS011;68944;48.262;14.208;2023-12-20T04:42:24;10.05;;;5.57;;
79480;SDS011;68944;48.262;14.208;2023-12-20T04:44:50;9.18;;;5.00;;
79480;SDS011;68944;48.262;14.208;2023-12-20T04:47:15;10.48;;;4.20;;
79480;SDS011;68944;48.262;14.208;2023-12-20T04:49:41;9.52;;;5.07;;
79480;SDS011;68944;48.262;14.208;2023-12-20T04:52:06;14.15;;;6.72;;
79480;SDS011;68944;48.262;14.208;2023-12-20T04:54:32;10.98;;;5.70;;
79480;SDS011;68944;48.262;14.208;2023-12-20T04:56:57;11.27;;;5.47;;
79480;SDS011;68944;48.262;14.208;2023-12-20T04:59:23;9.30;;;4.78;;
79480;SDS011;68944;48.262;14.208;2023-12-20T05:01:49;9.15;;;4.63;;
79480;SDS011;68944;48.262;14.208;2023-12-20T05:04:15;11.32;;;5.68;;
79480;SDS011;68944;48.262;14.208;2023-12-20T05:06:40;9.77;;;5.13;;
79480;SDS011;68944;48.262;14.208;2023-12-20T05:09:06;10.50;;;5.88;;
79480;SDS011;68944;48.262;14.208;2023-12-20T05:11:31;10.63;;;5.15;;
79480;SDS011;68944;48.262;14.208;2023-12-20T05:13:57;9.45;;;4.65;;
79480;SDS011;68944;48.262;14.208;2023-12-20T05:16:22;11.65;;;5.72;;
79480;SDS011;68944;48.262;14.208;2023-12-20T05:18:48;10.77;;;5.75;;
79480;SDS011;68944;48.262;14.208;2023-12-20T05:23:43;12.30;;;6.00;;
79480;SDS011;68944;48.262;14.208;2023-12-20T05:26:08;9.98;;;4.78;;
79480;SDS011;68944;48.262;14.208;2023-12-20T05:28:33;9.75;;;4.70;;
79480;SDS011;68944;48.262;14.208;2023-12-20T05:30:59;9.55;;;4.93;;
79480;SDS011;68944;48.262;14.208;2023-12-20T05:33:24;9.07;;;4.55;;
79480;SDS011;68944;48.262;14.208;2023-12-20T05:35:50;10.05;;;4.95;;
79480;SDS011;68944;48.262;14.208;2023-12-20T05:38:15;12.35;;;5.45;;
79480;SDS011;68944;48.262;14.208;2023-12-20T05:40:41;10.75;;;5.40;;
79480;SDS011;68944;48.262;14.208;2023-12-20T05:43:07;10.73;;;5.35;;
79480;SDS011;68944;48.262;14.208;2023-12-20T05:45:33;10.07;;;5.43;;
79480;SDS011;68944;48.262;14.208;2023-12-20T05:47:59;9.80;;;5.05;;
79480;SDS011;68944;48.262;14.208;2023-12-20T05:50:25;10.07;;;5.50;;
79480;SDS011;68944;48.262;14.208;2023-12-20T05:52:50;12.68;;;6.65;;
79480;SDS011;68944;48.262;14.208;2023-12-20T05:55:15;12.73;;;6.63;;
79480;SDS011;68944;48.262;14.208;2023-12-20T05:57:41;12.85;;;6.07;;
79480;SDS011;68944;48.262;14.208;2023-12-20T06:00:08;12.30;;;6.18;;
79480;SDS011;68944;48.262;14.208;2023-12-20T06:02:38;12.20;;;6.68;;
79480;SDS011;68944;48.262;14.208;2023-12-20T06:05:06;14.05;;;5.68;;
79480;SDS011;68944;48.262;14.208;2023-12-20T06:07:31;11.45;;;5.82;;
79480;SDS011;68944;48.262;14.208;2023-12-20T06:09:57;13.02;;;5.82;;
79480;SDS011;68944;48.262;14.208;2023-12-20T06:12:22;10.93;;;4.55;;
79480;SDS011;68944;48.262;14.208;2023-12-20T06:14:48;8.40;;;3.63;;
79480;SDS011;68944;48.262;14.208;2023-12-20T06:17:13;8.88;;;4.22;;
79480;SDS011;68944;48.262;14.208;2023-12-20T06:19:39;11.88;;;3.75;;
79480;SDS011;68944;48.262;14.208;2023-12-20T06:22:04;7.22;;;3.05;;
79480;SDS011;68944;48.262;14.208;2023-12-20T06:24:30;7.75;;;3.38;;
79480;SDS011;68944;48.262;14.208;2023-12-20T06:26:58;8.45;;;3.70;;
79480;SDS011;68944;48.262;14.208;2023-12-20T06:29:24;8.65;;;3.63;;
79480;SDS011;68944;48.262;14.208;2023-12-20T06:31:49;7.57;;;3.20;;
79480;SDS011;68944;48.262;14.208;2023-12-20T06:34:15;7.25;;;3.38;;
79480;SDS011;68944;48.262;14.208;2023-12-20T06:36:40;9.07;;;4.30;;
79480;SDS011;68944;48.262;14.208;2023-12-20T06:39:06;11.40;;;4.07;;
79480;SDS011;68944;48.262;14.208;2023-12-20T06:41:31;8.32;;;3.30;;
79480;SDS011;68944;48.262;14.208;2023-12-20T06:43:57;8.68;;;4.32;;
79480;SDS011;68944;48.262;14.208;2023-12-20T06:46:23;9.27;;;3.92;;
79480;SDS011;68944;48.262;14.208;2023-12-20T06:48:48;8.10;;;3.80;;
79480;SDS011;68944;48.262;14.208;2023-12-20T06:51:14;10.45;;;4.90;;
79480;SDS011;68944;48.262;14.208;2023-12-20T06:53:40;9.85;;;5.15;;
79480;SDS011;68944;48.262;14.208;2023-12-20T06:56:06;14.20;;;4.82;;
79480;SDS011;68944;48.262;14.208;2023-12-20T06:58:32;10.45;;;5.22;;
79480;SDS011;68944;48.262;14.208;2023-12-20T07:00:58;9.13;;;5.22;;
79480;SDS011;68944;48.262;14.208;2023-12-20T07:03:23;10.63;;;5.03;;
79480;SDS011;68944;48.262;14.208;2023-12-20T07:05:49;10.52;;;5.10;;
79480;SDS011;68944;48.262;14.208;2023-12-20T07:08:14;12.07;;;5.35;;
79480;SDS011;68944;48.262;14.208;2023-12-20T07:10:40;9.60;;;4.95;;
79480;SDS011;68944;48.262;14.208;2023-12-20T07:13:06;13.52;;;5.20;;
79480;SDS011;68944;48.262;14.208;2023-12-20T07:15:33;9.07;;;4.90;;
79480;SDS011;68944;48.262;14.208;2023-12-20T07:17:58;9.13;;;4.40;;
79480;SDS011;68944;48.262;14.208;2023-12-20T07:20:25;10.70;;;4.93;;
79480;SDS011;68944;48.262;14.208;2023-12-20T07:22:51;8.35;;;4.07;;
79480;SDS011;68944;48.262;14.208;2023-12-20T07:25:16;8.55;;;3.25;;
79480;SDS011;68944;48.262;14.208;2023-12-20T07:27:42;7.22;;;3.05;;
79480;SDS011;68944;48.262;14.208;2023-12-20T07:30:08;7.50;;;3.50;;
79480;SDS011;68944;48.262;14.208;2023-12-20T07:32:34;8.30;;;3.45;;
79480;SDS011;68944;48.262;14.208;2023-12-20T07:34:59;7.18;;;3.33;;
79480;SDS011;68944;48.262;14.208;2023-12-20T07:37:25;7.53;;;3.28;;
79480;SDS011;68944;48.262;14.208;2023-12-20T07:39:50;7.25;;;2.67;;
79480;SDS011;68944;48.262;14.208;2023-12-20T07:42:16;6.13;;;2.42;;
79480;SDS011;68944;48.262;14.208;2023-12-20T07:44:41;10.35;;;2.40;;
79480;SDS011;68944;48.262;14.208;2023-12-20T07:47:07;7.28;;;2.72;;
79480;SDS011;68944;48.262;14.208;2023-12-20T07:49:32;4.72;;;1.83;;
79480;SDS011;68944;48.262;14.208;2023-12-20T07:51:58;5.43;;;2.00;;
79480;SDS011;68944;48.262;14.208;2023-12-20T07:54:23;5.30;;;1.77;;
79480;SDS011;68944;48.262;14.208;2023-12-20T07:56:49;5.20;;;1.85;;
79480;SDS011;68944;48.262;14.208;2023-12-20T07:59:15;4.95;;;1.83;;
79480;SDS011;68944;48.262;14.208;2023-12-20T08:01:40;4.95;;;1.60;;
79480;SDS011;68944;48.262;14.208;2023-12-20T08:04:06;5.10;;;1.73;;
79480;SDS011;68944;48.262;14.208;2023-12-20T08:06:31;4.90;;;1.90;;
79480;SDS011;68944;48.262;14.208;2023-12-20T08:08:57;4.55;;;1.60;;
79480;SDS011;68944;48.262;14.208;2023-12-20T08:11:22;4.78;;;1.77;;
79480;SDS011;68944;48.262;14.208;2023-12-20T08:13:47;4.03;;;1.40;;
79480;SDS011;68944;48.262;14.208;2023-12-20T08:16:13;4.38;;;1.60;;
79480;SDS011;68944;48.262;14.208;2023-12-20T08:18:40;5.72;;;1.85;;
79480;SDS011;68944;48.262;14.208;2023-12-20T08:21:06;4.28;;;1.50;;
79480;SDS011;68944;48.262;14.208;2023-12-20T08:23:33;5.13;;;1.75;;
79480;SDS011;68944;48.262;14.208;2023-12-20T08:26:03;4.22;;;1.50;;
79480;SDS011;68944;48.262;14.208;2023-12-20T08:28:30;4.55;;;1.60;;
79480;SDS011;68944;48.262;14.208;2023-12-20T08:30:56;5.88;;;2.03;;
79480;SDS011;68944;48.262;14.208;2023-12-20T08:33:22;4.90;;;1.60;;
79480;SDS011;68944;48.262;14.208;2023-12-20T08:35:47;5.43;;;1.58;;
79480;SDS011;68944;48.262;14.208;2023-12-20T08:38:13;4.72;;;1.48;;
79480;SDS011;68944;48.262;14.208;2023-12-20T08:40:39;4.80;;;1.60;;
79480;SDS011;68944;48.262;14.208;2023-12-20T08:43:05;4.40;;;1.60;;
79480;SDS011;68944;48.262;14.208;2023-12-20T08:45:31;3.67;;;1.25;;
79480;SDS011;68944;48.262;14.208;2023-12-20T08:47:56;4.75;;;1.65;;
79480;SDS011;68944;48.262;14.208;2023-12-20T08:50:22;4.18;;;1.50;;
79480;SDS011;68944;48.262;14.208;2023-12-20T08:52:47;3.80;;;1.40;;
79480;SDS011;68944;48.262;14.208;2023-12-20T08:55:13;5.00;;;1.38;;
79480;SDS011;68944;48.262;14.208;2023-12-20T08:57:40;5.72;;;1.80;;
79480;SDS011;68944;48.262;14.208;2023-12-20T09:00:05;4.70;;;1.58;;
79480;SDS011;68944;48.262;14.208;2023-12-20T09:02:32;5.90;;;2.03;;
79480;SDS011;68944;48.262;14.208;2023-12-20T09:05:01;4.70;;;1.83;;
79480;SDS011;68944;48.262;14.208;2023-12-20T09:07:28;5.93;;;1.80;;
79480;SDS011;68944;48.262;14.208;2023-12-20T09:09:55;5.00;;;1.70;;
79480;SDS011;68944;48.262;14.208;2023-12-20T09:12:21;5.82;;;1.67;;
79480;SDS011;68944;48.262;14.208;2023-12-20T09:14:47;6.03;;;2.03;;
79480;SDS011;68944;48.262;14.208;2023-12-20T09:17:14;6.20;;;1.80;;
79480;SDS011;68944;48.262;14.208;2023-12-20T09:19:41;5.32;;;1.85;;
79480;SDS011;68944;48.262;14.208;2023-12-20T09:22:09;8.13;;;2.15;;
79480;SDS011;68944;48.262;14.208;2023-12-20T09:24:34;5.50;;;1.80;;
79480;SDS011;68944;48.262;14.208;2023-12-20T09:27:00;5.93;;;2.08;;
79480;SDS011;68944;48.262;14.208;2023-12-20T09:29:25;6.28;;;2.28;;
79480;SDS011;68944;48.262;14.208;2023-12-20T09:31:52;5.45;;;2.00;;
79480;SDS011;68944;48.262;14.208;2023-12-20T09:34:17;6.30;;;2.35;;
79480;SDS011;68944;48.262;14.208;2023-12-20T09:36:43;6.20;;;2.17;;
79480;SDS011;68944;48.262;14.208;2023-12-20T09:39:15;5.60;;;1.95;;
79480;SDS011;68944;48.262;14.208;2023-12-20T09:42:08;6.00;;;2.33;;
79480;SDS011;68944;48.262;14.208;2023-12-20T09:44:32;5.60;;;2.22;;
79480;SDS011;68944;48.262;14.208;2023-12-20T09:49:30;5.57;;;2.10;;
79480;SDS011;68944;48.262;14.208;2023-12-20T09:51:57;7.30;;;2.20;;
79480;SDS011;68944;48.262;14.208;2023-12-20T09:54:25;4.70;;;1.70;;
79480;SDS011;68944;48.262;14.208;2023-12-20T09:56:52;5.97;;;2.20;;
79480;SDS011;68944;48.262;14.208;2023-12-20T09:59:17;5.03;;;1.88;;
79480;SDS011;68944;48.262;14.208;2023-12-20T10:01:43;5.78;;;1.85;;
79480;SDS011;68944;48.262;14.208;2023-12-20T10:04:09;4.32;;;1.63;;
79480;SDS011;68944;48.262;14.208;2023-12-20T10:06:40;5.32;;;1.75;;
79480;SDS011;68944;48.262;14.208;2023-12-20T10:09:07;5.10;;;1.70;;
79480;SDS011;68944;48.262;14.208;2023-12-20T10:11:35;7.28;;;2.00;;
79480;SDS011;68944;48.262;14.208;2023-12-20T10:14:02;5.45;;;1.98;;
79480;SDS011;68944;48.262;14.208;2023-12-20T10:16:28;4.95;;;1.77;;
79480;SDS011;68944;48.262;14.208;2023-12-20T10:18:54;4.28;;;1.50;;
79480;SDS011;68944;48.262;14.208;2023-12-20T10:21:20;5.55;;;1.92;;
79480;SDS011;68944;48.262;14.208;2023-12-20T10:23:47;5.10;;;1.75;;
79480;SDS011;68944;48.262;14.208;2023-12-20T10:26:24;4.78;;;1.73;;
79480;SDS011;68944;48.262;14.208;2023-12-20T10:28:54;5.38;;;1.90;;
79480;SDS011;68944;48.262;14.208;2023-12-20T10:31:28;4.97;;;1.70;;
79480;SDS011;68944;48.262;14.208;2023-12-20T10:33:58;3.28;;;1.30;;
79480;SDS011;68944;48.262;14.208;2023-12-20T10:36:25;5.22;;;1.98;;
79480;SDS011;68944;48.262;14.208;2023-12-20T10:38:53;4.25;;;1.60;;
79480;SDS011;68944;48.262;14.208;2023-12-20T10:41:24;4.63;;;1.50;;
79480;SDS011;68944;48.262;14.208;2023-12-20T10:43:53;4.22;;;1.50;;
79480;SDS011;68944;48.262;14.208;2023-12-20T10:46:26;4.63;;;1.80;;
79480;SDS011;68944;48.262;14.208;2023-12-20T10:48:54;3.95;;;1.48;;
79480;SDS011;68944;48.262;14.208;2023-12-20T10:51:20;5.05;;;1.60;;
79480;SDS011;68944;48.262;14.208;2023-12-20T10:53:49;5.53;;;1.80;;
79480;SDS011;68944;48.262;14.208;2023-12-20T10:56:19;4.50;;;1.73;;
79480;SDS011;68944;48.262;14.208;2023-12-20T10:58:46;3.67;;;1.30;;
79480;SDS011;68944;48.262;14.208;2023-12-20T11:01:13;4.28;;;1.58;;
79480;SDS011;68944;48.262;14.208;2023-12-20T11:03:52;4.68;;;1.30;;
79480;SDS011;68944;48.262;14.208;2023-12-20T11:09:31;3.47;;;1.20;;
79480;SDS011;68944;48.262;14.208;2023-12-20T11:12:13;7.38;;;1.50;;
79480;SDS011;68944;48.262;14.208;2023-12-20T11:14:46;4.00;;;1.48;;
79480;SDS011;68944;48.262;14.208;2023-12-20T11:17:14;5.18;;;1.67;;
79480;SDS011;68944;48.262;14.208;2023-12-20T11:22:26;4.43;;;1.70;;
79480;SDS011;68944;48.262;14.208;2023-12-20T11:25:05;3.92;;;1.50;;
79480;SDS011;68944;48.262;14.208;2023-12-20T11:27:35;4.18;;;1.60;;
79480;SDS011;68944;48.262;14.208;2023-12-20T11:30:05;3.50;;;1.40;;
79480;SDS011;68944;48.262;14.208;2023-12-20T11:32:35;3.28;;;1.20;;
79480;SDS011;68944;48.262;14.208;2023-12-20T11:37:36;3.78;;;1.30;;
79480;SDS011;68944;48.262;14.208;2023-12-20T11:42:33;2.60;;;0.90;;
79480;SDS011;68944;48.262;14.208;2023-12-20T11:45:03;2.53;;;1.02;;
79480;SDS011;68944;48.262;14.208;2023-12-20T11:47:29;2.95;;;1.00;;
79480;SDS011;68944;48.262;14.208;2023-12-20T11:49:56;4.40;;;1.42;;
79480;SDS011;68944;48.262;14.208;2023-12-20T11:52:22;2.45;;;1.05;;
79480;SDS011;68944;48.262;14.208;2023-12-20T11:54:47;2.45;;;0.77;;
79480;SDS011;68944;48.262;14.208;2023-12-20T11:57:13;3.45;;;1.10;;
79480;SDS011;68944;48.262;14.208;2023-12-20T11:59:39;2.65;;;1.10;;
79480;SDS011;68944;48.262;14.208;2023-12-20T12:02:05;2.15;;;0.90;;
79480;SDS011;68944;48.262;14.208;2023-12-20T12:04:30;3.33;;;1.20;;
79480;SDS011;68944;48.262;14.208;2023-12-20T12:06:56;3.00;;;1.02;;
79480;SDS011;68944;48.262;14.208;2023-12-20T12:09:22;2.83;;;1.00;;
79480;SDS011;68944;48.262;14.208;2023-12-20T12:11:47;2.47;;;1.08;;
79480;SDS011;68944;48.262;14.208;2023-12-20T12:14:13;2.40;;;1.00;;
79480;SDS011;68944;48.262;14.208;2023-12-20T12:16:38;2.50;;;0.90;;
79480;SDS011;68944;48.262;14.208;2023-12-20T12:19:04;2.60;;;1.10;;
79480;SDS011;68944;48.262;14.208;2023-12-20T12:21:29;2.38;;;0.93;;
79480;SDS011;68944;48.262;14.208;2023-12-20T12:24:05;2.28;;;0.82;;
79480;SDS011;68944;48.262;14.208;2023-12-20T12:26:35;1.73;;;0.80;;
79480;SDS011;68944;48.262;14.208;2023-12-20T12:29:00;2.33;;;1.10;;
79480;SDS011;68944;48.262;14.208;2023-12-20T12:31:26;2.65;;;0.82;;
79480;SDS011;68944;48.262;14.208;2023-12-20T12:33:51;3.15;;;1.08;;
79480;SDS011;68944;48.262;14.208;2023-12-20T12:36:17;2.13;;;0.90;;
79480;SDS011;68944;48.262;14.208;2023-12-20T12:38:43;2.03;;;0.88;;
79480;SDS011;68944;48.262;14.208;2023-12-20T12:41:09;1.88;;;0.95;;
79480;SDS011;68944;48.262;14.208;2023-12-20T12:43:35;2.83;;;0.90;;
79480;SDS011;68944;48.262;14.208;2023-12-20T12:46:01;5.88;;;1.42;;
79480;SDS011;68944;48.262;14.208;2023-12-20T12:48:26;3.05;;;1.08;;
79480;SDS011;68944;48.262;14.208;2023-12-20T12:50:53;3.00;;;1.00;;
79480;SDS011;68944;48.262;14.208;2023-12-20T12:53:19;2.42;;;0.90;;
79480;SDS011;68944;48.262;14.208;2023-12-20T12:55:45;3.08;;;1.10;;
79480;SDS011;68944;48.262;14.208;2023-12-20T12:58:11;4.25;;;1.23;;
79480;SDS011;68944;48.262;14.208;2023-12-20T13:00:37;3.42;;;1.13;;
79480;SDS011;68944;48.262;14.208;2023-12-20T13:03:02;3.25;;;1.10;;
79480;SDS011;68944;48.262;14.208;2023-12-20T13:05:29;2.60;;;1.05;;
79480;SDS011;68944;48.262;14.208;2023-12-20T13:07:54;3.25;;;1.38;;
79480;SDS011;68944;48.262;14.208;2023-12-20T13:10:20;4.20;;;1.50;;
79480;SDS011;68944;48.262;14.208;2023-12-20T13:12:45;4.47;;;1.20;;
79480;SDS011;68944;48.262;14.208;2023-12-20T13:15:11;4.32;;;1.50;;
79480;SDS011;68944;48.262;14.208;2023-12-20T13:17:36;4.10;;;1.42;;
79480;SDS011;68944;48.262;14.208;2023-12-20T13:20:03;3.75;;;1.20;;
79480;SDS011;68944;48.262;14.208;2023-12-20T13:22:29;3.42;;;1.33;;
79480;SDS011;68944;48.262;14.208;2023-12-20T13:24:55;6.00;;;1.45;;
79480;SDS011;68944;48.262;14.208;2023-12-20T13:27:20;3.60;;;1.38;;
79480;SDS011;68944;48.262;14.208;2023-12-20T13:29:46;3.65;;;1.23;;
79480;SDS011;68944;48.262;14.208;2023-12-20T13:32:11;4.95;;;1.55;;
79480;SDS011;68944;48.262;14.208;2023-12-20T13:34:37;4.32;;;1.33;;
79480;SDS011;68944;48.262;14.208;2023-12-20T13:37:02;4.75;;;1.40;;
79480;SDS011;68944;48.262;14.208;2023-12-20T13:39:30;3.90;;;1.30;;
79480;SDS011;68944;48.262;14.208;2023-12-20T13:41:56;3.45;;;1.20;;
79480;SDS011;68944;48.262;14.208;2023-12-20T13:44:22;3.80;;;1.27;;
79480;SDS011;68944;48.262;14.208;2023-12-20T13:46:47;3.97;;;1.27;;
79480;SDS011;68944;48.262;14.208;2023-12-20T13:49:14;4.85;;;1.70;;
79480;SDS011;68944;48.262;14.208;2023-12-20T13:51:40;2.63;;;1.00;;
79480;SDS011;68944;48.262;14.208;2023-12-20T13:54:05;3.33;;;1.20;;
79480;SDS011;68944;48.262;14.208;2023-12-20T13:56:31;4.22;;;1.50;;
79480;SDS011;68944;48.262;14.208;2023-12-20T13:58:58;4.53;;;1.35;;
79480;SDS011;68944;48.262;14.208;2023-12-20T14:01:24;2.95;;;1.02;;
79480;SDS011;68944;48.262;14.208;2023-12-20T14:03:51;4.68;;;1.45;;
79480;SDS011;68944;48.262;14.208;2023-12-20T14:06:17;3.63;;;1.27;;
79480;SDS011;68944;48.262;14.208;2023-12-20T14:08:43;6.53;;;1.58;;
79480;SDS011;68944;48.262;14.208;2023-12-20T14:11:08;4.07;;;1.45;;
79480;SDS011;68944;48.262;14.208;2023-12-20T14:13:34;3.85;;;1.50;;
79480;SDS011;68944;48.262;14.208;2023-12-20T14:16:00;4.13;;;1.42;;
79480;SDS011;68944;48.262;14.208;2023-12-20T14:18:27;3.45;;;1.30;;
79480;SDS011;68944;48.262;14.208;2023-12-20T14:20:52;4.70;;;1.60;;
79480;SDS011;68944;48.262;14.208;2023-12-20T14:23:19;4.35;;;1.45;;
79480;SDS011;68944;48.262;14.208;2023-12-20T14:25:45;4.13;;;1.48;;
79480;SDS011;68944;48.262;14.208;2023-12-20T14:28:10;3.70;;;1.20;;
79480;SDS011;68944;48.262;14.208;2023-12-20T14:30:39;7.10;;;1.92;;
79480;SDS011;68944;48.262;14.208;2023-12-20T14:33:05;4.57;;;1.40;;
79480;SDS011;68944;48.262;14.208;2023-12-20T14:35:30;2.65;;;1.20;;
79480;SDS011;68944;48.262;14.208;2023-12-20T14:37:56;4.18;;;1.55;;
79480;SDS011;68944;48.262;14.208;2023-12-20T14:40:22;11.20;;;1.67;;
79480;SDS011;68944;48.262;14.208;2023-12-20T14:42:48;3.90;;;1.58;;